Alcester, South Dakota
Current Conditions -  °F | °C
As of 4:55 PM on Thursday 23 Oct 2014 (Local Time) from KLRJ Reporting Station
Clear Clear  
Wind Chill: 70°   Ceiling: Unl
Heat Index: 70°   Visibility: 10mi
Dew Point: 48°   Wind: 10mph
Humidity: 46%   Direction: 180°S
Pressure: 29.98"   Gusts: NA
Location:  43.02°N, 96.63°W
Report Text: KLRJ 232155Z AUTO 18009KT 10SM CLR 21/09 A2998 RMK AO2
Loading
Personal Weather Stations






























Interactive Weather Map New forecast layout! Learn more

10-Day Weather Forecast

Advertisements
Track Severe Weather on mobile